createdAt,value
2022-10-05T00:00:46.072Z,100659.72
2022-10-05T00:02:52.659Z,100658.03
2022-10-05T00:04:57.431Z,100661.63
2022-10-05T00:07:20.202Z,100659.03
2022-10-05T00:09:22.692Z,100660.66
2022-10-05T00:11:24.795Z,100660.75
2022-10-05T00:13:29.917Z,100663.72
2022-10-05T00:15:32.305Z,100662.97
2022-10-05T00:17:35.386Z,100667.31
2022-10-05T00:19:39.393Z,100655.75
2022-10-05T00:21:41.418Z,100662.16
2022-10-05T00:23:43.520Z,100669.34
2022-10-05T00:25:46.263Z,100663.91
2022-10-05T00:27:56.912Z,100663.13
2022-10-05T00:30:02.677Z,100665.13
2022-10-05T00:32:04.918Z,100664.34
2022-10-05T00:34:07.229Z,100672.50
2022-10-05T00:36:09.501Z,100673.38
2022-10-05T00:38:11.538Z,100672.44
2022-10-05T00:40:31.786Z,100675.28
2022-10-05T00:42:43.110Z,100673.28
2022-10-05T00:44:55.174Z,100673.19
2022-10-05T00:47:04.044Z,100678.41
2022-10-05T00:49:14.523Z,100674.47
2022-10-05T00:51:36.643Z,100667.28
2022-10-05T00:54:03.498Z,100676.16
2022-10-05T00:56:25.891Z,100678.97
2022-10-05T00:58:55.534Z,100682.50
2022-10-05T01:01:15.493Z,100683.31
2022-10-05T01:03:38.325Z,100692.19
2022-10-05T01:05:52.173Z,100688.53
2022-10-05T01:08:21.694Z,100683.22
2022-10-05T01:10:34.437Z,100687.81
2022-10-05T01:12:59.196Z,100686.03
2022-10-05T01:15:04.692Z,100688.66
2022-10-05T01:17:38.076Z,100680.88
2022-10-05T01:20:09.987Z,100681.09
2022-10-05T01:22:27.480Z,100681.44
2022-10-05T01:24:44.734Z,100681.25
2022-10-05T01:26:56.094Z,100682.38
2022-10-05T01:29:16.624Z,100676.06
2022-10-05T01:31:24.785Z,100674.34
2022-10-05T01:33:36.168Z,100675.28
2022-10-05T01:36:03.564Z,100684.44
2022-10-05T01:38:37.102Z,100682.75
2022-10-05T01:41:13.672Z,100677.19
2022-10-05T01:43:36.479Z,100680.72
2022-10-05T01:45:53.888Z,100675.19
2022-10-05T01:48:10.076Z,100668.97
2022-10-05T01:51:27.552Z,100672.84
2022-10-05T01:53:48.091Z,100658.72
2022-10-05T01:56:01.774Z,100667.72
2022-10-05T01:58:35.189Z,100671.38
2022-10-05T02:01:12.593Z,100665.25
2022-10-05T02:03:24.761Z,100672.44
2022-10-05T02:05:36.239Z,100676.75
2022-10-05T02:07:43.006Z,100673.09
2022-10-05T02:09:54.586Z,100674.28
2022-10-05T02:12:03.781Z,100673.34
2022-10-05T02:14:12.767Z,100682.34
2022-10-05T02:16:22.306Z,100686.78
2022-10-05T02:18:33.940Z,100685.75
2022-10-05T02:20:41.531Z,100687.25
2022-10-05T02:22:56.355Z,100684.59
2022-10-05T02:25:03.696Z,100689.91
2022-10-05T02:27:09.030Z,100698.84
2022-10-05T02:29:16.769Z,100688.78
2022-10-05T02:31:30.157Z,100687.78
2022-10-05T02:34:16.770Z,100692.19
2022-10-05T02:36:32.301Z,100702.97
2022-10-05T02:38:51.929Z,100703.28
2022-10-05T02:41:14.966Z,100713.06
2022-10-05T02:43:23.649Z,100711.34
2022-10-05T02:45:37.954Z,100707.75
2022-10-05T02:48:00.640Z,100713.94
2022-10-05T02:50:15.776Z,100716.47
2022-10-05T02:52:45.213Z,100717.63
2022-10-05T02:55:18.235Z,100719.72
2022-10-05T02:57:38.801Z,100725.03
2022-10-05T02:59:48.869Z,100718.72
2022-10-05T03:01:54.758Z,100714.13
2022-10-05T03:04:15.229Z,100722.25
2022-10-05T03:06:23.709Z,100725.69
2022-10-05T03:08:47.510Z,100730.03
2022-10-05T03:11:26.825Z,100728.47
2022-10-05T03:13:48.422Z,100729.41
2022-10-05T03:15:55.079Z,100732.06
2022-10-05T03:18:08.101Z,100733.16
2022-10-05T03:20:22.104Z,100731.38
2022-10-05T03:22:34.042Z,100721.56
2022-10-05T03:24:41.889Z,100729.53
2022-10-05T03:27:04.450Z,100731.44
2022-10-05T03:29:25.037Z,100735.25
2022-10-05T03:31:42.164Z,100737.19
2022-10-05T03:33:56.245Z,100740.81
2022-10-05T03:36:05.406Z,100730.00
2022-10-05T03:38:10.346Z,100733.56
2022-10-05T03:40:28.660Z,100741.69
2022-10-05T03:42:57.165Z,100732.84
2022-10-05T03:45:26.817Z,100736.34
2022-10-05T03:47:52.381Z,100728.31
2022-10-05T03:50:00.431Z,100737.41
2022-10-05T03:52:10.676Z,100733.88
2022-10-05T03:54:23.719Z,100734.78
2022-10-05T03:56:41.022Z,100741.25
2022-10-05T03:58:53.121Z,100744.69
2022-10-05T04:01:00.856Z,100742.13
2022-10-05T04:03:35.543Z,100747.44
2022-10-05T04:05:52.220Z,100753.63
2022-10-05T04:07:59.461Z,100757.25
2022-10-05T04:10:09.357Z,100756.41
2022-10-05T04:12:38.980Z,100757.38
2022-10-05T04:14:55.434Z,100757.44
2022-10-05T04:17:05.085Z,100747.50
2022-10-05T04:19:16.925Z,100755.63
2022-10-05T04:21:28.696Z,100750.19
2022-10-05T04:23:43.961Z,100762.53
2022-10-05T04:26:02.329Z,100751.78
2022-10-05T04:28:32.375Z,100763.34
2022-10-05T04:30:42.193Z,100762.41
2022-10-05T04:32:50.204Z,100762.41
2022-10-05T04:34:54.571Z,100772.41
2022-10-05T04:37:03.119Z,100770.81
2022-10-05T04:39:21.366Z,100781.44
2022-10-05T04:41:24.515Z,100774.09
2022-10-05T04:44:05.679Z,100773.28
2022-10-05T04:46:19.274Z,100784.16
2022-10-05T04:48:32.953Z,100778.78
2022-10-05T04:50:55.461Z,100783.31
2022-10-05T04:53:28.200Z,100785.06
2022-10-05T04:55:45.533Z,100791.38
2022-10-05T04:58:13.480Z,100787.84
2022-10-05T05:00:23.080Z,100791.38
2022-10-05T05:02:41.248Z,100792.22
2022-10-05T05:05:06.100Z,100793.91
2022-10-05T05:07:49.366Z,100787.72
2022-10-05T05:10:05.486Z,100791.28
2022-10-05T05:12:38.703Z,100785.84
2022-10-05T05:14:43.681Z,100791.16
2022-10-05T05:17:08.538Z,100791.16
2022-10-05T05:19:17.301Z,100787.53
2022-10-05T05:21:41.138Z,100796.41
2022-10-05T05:24:05.677Z,100797.41
2022-10-05T05:26:22.651Z,100788.41
2022-10-05T05:28:47.221Z,100797.97
2022-10-05T05:30:57.637Z,100795.94
2022-10-05T05:33:16.739Z,100806.69
2022-10-05T05:35:40.059Z,100802.94
2022-10-05T05:38:11.918Z,100806.25
2022-10-05T05:40:24.065Z,100806.09
2022-10-05T05:42:49.761Z,100800.66
2022-10-05T05:44:58.738Z,100810.41
2022-10-05T05:47:11.089Z,100805.66
2022-10-05T05:49:36.122Z,100798.38
2022-10-05T05:51:46.005Z,100808.03
2022-10-05T05:53:55.997Z,100801.16
2022-10-05T06:00:15.518Z,100805.75
2022-10-05T06:03:05.311Z,100810.16
2022-10-05T06:05:32.169Z,100812.28
2022-10-05T06:07:38.100Z,100811.72
2022-10-05T06:10:07.921Z,100813.50
2022-10-05T06:12:27.239Z,100806.94
2022-10-05T06:14:35.342Z,100815.13
2022-10-05T06:16:47.421Z,100806.72
2022-10-05T06:18:59.279Z,100810.09
2022-10-05T06:21:24.575Z,100812.69
2022-10-05T06:23:35.925Z,100826.66
2022-10-05T06:26:10.915Z,100819.28
2022-10-05T06:28:19.858Z,100827.75
2022-10-05T06:30:30.955Z,100836.50
2022-10-05T06:32:33.603Z,100830.69
2022-10-05T06:35:11.860Z,100828.13
2022-10-05T06:37:34.151Z,100826.81
2022-10-05T06:40:00.795Z,100832.75
2022-10-05T06:42:13.631Z,100834.03
2022-10-05T06:44:53.608Z,100828.25
2022-10-05T06:47:29.928Z,100837.06
2022-10-05T06:49:58.033Z,100832.06
2022-10-05T06:52:25.645Z,100823.16
2022-10-05T06:55:00.790Z,100832.69
2022-10-05T06:57:08.738Z,100829.97
2022-10-05T06:59:40.383Z,100824.75
2022-10-05T07:01:51.740Z,100837.16
2022-10-05T07:03:57.566Z,100830.53
2022-10-05T07:06:07.372Z,100838.84
2022-10-05T07:08:19.743Z,100833.34
2022-10-05T07:10:30.670Z,100836.34
2022-10-05T07:12:47.199Z,100841.06
2022-10-05T07:14:52.275Z,100840.75
2022-10-05T07:17:20.519Z,100845.22
2022-10-05T07:19:35.222Z,100835.81
2022-10-05T07:21:45.935Z,100845.25
2022-10-05T07:24:13.224Z,100845.81
2022-10-05T07:26:27.584Z,100841.63
2022-10-05T07:28:48.098Z,100847.72
2022-10-05T07:31:00.616Z,100837.63
2022-10-05T07:33:18.157Z,100837.31
2022-10-05T07:35:54.450Z,100838.03
2022-10-05T07:38:02.052Z,100835.19
2022-10-05T07:40:11.230Z,100836.50
2022-10-05T07:42:52.223Z,100840.06
2022-10-05T07:45:18.301Z,100848.69
2022-10-05T07:47:32.054Z,100846.53
2022-10-05T07:49:42.016Z,100854.22
2022-10-05T07:51:58.620Z,100865.81
2022-10-05T07:54:25.863Z,100872.66
2022-10-05T07:56:50.625Z,100862.78
2022-10-05T07:59:07.912Z,100863.75
2022-10-05T08:01:25.040Z,100878.66
2022-10-05T08:03:52.499Z,100883.78
2022-10-05T08:05:55.298Z,100895.97
2022-10-05T08:08:24.935Z,100904.88
2022-10-05T08:10:38.499Z,100901.50
2022-10-05T08:13:04.523Z,100899.06
2022-10-05T08:15:20.892Z,100902.88
2022-10-05T08:18:00.638Z,100916.28
2022-10-05T08:20:06.496Z,100913.75
2022-10-05T08:22:19.798Z,100916.47
2022-10-05T08:24:38.676Z,100913.75
2022-10-05T08:27:06.555Z,100925.81
2022-10-05T08:29:30.063Z,100937.03
2022-10-05T08:31:33.853Z,100937.59
2022-10-05T08:34:00.600Z,100931.38
2022-10-05T08:36:14.621Z,100932.66
2022-10-05T08:38:20.233Z,100933.13
2022-10-05T08:41:01.226Z,100934.47
2022-10-05T08:43:35.045Z,100944.25
2022-10-05T08:46:08.442Z,100939.53
2022-10-05T08:48:36.416Z,100932.25
2022-10-05T08:50:38.262Z,100936.25
2022-10-05T08:52:43.367Z,100926.09
2022-10-05T08:55:10.382Z,100919.59
2022-10-05T08:57:15.477Z,100922.44
2022-10-05T08:59:44.674Z,100916.66
2022-10-05T09:02:28.349Z,100915.69
2022-10-05T09:04:48.302Z,100907.31
2022-10-05T09:07:01.450Z,100908.47
2022-10-05T09:09:18.689Z,100893.38
2022-10-05T09:11:26.959Z,100897.44
2022-10-05T09:13:40.819Z,100897.44
2022-10-05T09:16:02.996Z,100883.75
2022-10-05T09:18:42.469Z,100873.63
2022-10-05T09:20:55.348Z,100870.47
2022-10-05T09:23:00.231Z,100869.25
2022-10-05T09:25:21.277Z,100863.16
2022-10-05T09:27:36.534Z,100872.63
2022-10-05T09:30:20.297Z,100862.59
2022-10-05T09:32:59.318Z,100870.31
2022-10-05T09:35:23.065Z,100870.47
2022-10-05T09:37:50.257Z,100873.81
2022-10-05T09:40:35.139Z,100872.84
2022-10-05T09:43:17.745Z,100879.34
2022-10-05T09:45:38.378Z,100884.44
2022-10-05T09:47:50.682Z,100885.94
2022-10-05T09:50:18.849Z,100878.41
2022-10-05T09:53:11.025Z,100872.56
2022-10-05T09:55:46.935Z,100876.22
2022-10-05T09:57:55.573Z,100879.63
2022-10-05T09:59:57.581Z,100875.78
2022-10-05T10:02:14.156Z,100878.22
2022-10-05T10:04:29.759Z,100877.09
2022-10-05T10:07:17.100Z,100865.31
2022-10-05T10:09:28.393Z,100878.59
2022-10-05T10:11:42.025Z,100873.06
2022-10-05T10:13:47.076Z,100874.63
2022-10-05T10:15:57.800Z,100877.47
2022-10-05T10:18:38.162Z,100869.78
2022-10-05T10:20:48.984Z,100867.59
2022-10-05T10:22:59.933Z,100867.16
2022-10-05T10:25:43.538Z,100866.97
2022-10-05T10:27:51.702Z,100867.59
2022-10-05T10:30:12.315Z,100870.06
2022-10-05T10:32:17.430Z,100878.00
2022-10-05T10:35:10.146Z,100888.56
2022-10-05T10:37:21.103Z,100881.56
2022-10-05T10:39:45.299Z,100885.78
2022-10-05T10:42:02.682Z,100892.91
2022-10-05T10:44:52.651Z,100895.19
2022-10-05T10:47:22.392Z,100896.47
2022-10-05T10:49:59.500Z,100880.88
2022-10-05T10:52:01.516Z,100873.28
2022-10-05T10:54:22.312Z,100868.69
2022-10-05T10:56:54.703Z,100870.28
2022-10-05T10:59:05.478Z,100866.31
2022-10-05T11:01:29.296Z,100866.03
2022-10-05T11:03:43.283Z,100866.97
2022-10-05T11:06:01.562Z,100857.22
2022-10-05T11:08:12.751Z,100857.13
2022-10-05T11:10:31.701Z,100858.66
2022-10-05T11:12:51.641Z,100853.97
2022-10-05T11:15:16.905Z,100858.84
2022-10-05T11:17:18.923Z,100869.41
2022-10-05T11:20:20.853Z,100873.03
2022-10-05T11:22:32.741Z,100869.53
2022-10-05T11:25:07.197Z,100873.16
2022-10-05T11:27:15.083Z,100871.63
2022-10-05T11:29:23.068Z,100867.53
2022-10-05T11:32:04.146Z,100864.78
2022-10-05T11:34:41.474Z,100842.75
2022-10-05T11:37:10.944Z,100849.78
2022-10-05T11:39:44.765Z,100845.78
2022-10-05T11:42:11.696Z,100849.06
2022-10-05T11:44:31.990Z,100843.09
2022-10-05T11:46:49.671Z,100847.78
2022-10-05T11:49:34.452Z,100848.47
2022-10-05T11:51:59.238Z,100859.09
2022-10-05T11:54:10.334Z,100860.19
2022-10-05T11:56:34.107Z,100859.09
2022-10-05T11:58:59.752Z,100869.56
2022-10-05T12:01:20.293Z,100870.63
2022-10-05T12:03:42.675Z,100862.25
2022-10-05T12:06:13.970Z,100872.00
2022-10-05T12:08:24.584Z,100868.50
2022-10-05T12:10:52.566Z,100872.41
2022-10-05T12:12:57.774Z,100867.41
2022-10-05T12:15:35.273Z,100872.31
2022-10-05T12:18:06.931Z,100858.53
2022-10-05T12:20:35.843Z,100856.69
2022-10-05T12:22:49.785Z,100855.72
2022-10-05T12:25:11.886Z,100851.00
2022-10-05T12:27:27.140Z,100849.25
2022-10-05T12:29:51.932Z,100843.13
2022-10-05T12:32:33.793Z,100844.19
2022-10-05T12:35:01.441Z,100855.22
2022-10-05T12:37:29.094Z,100849.94
2022-10-05T12:39:49.975Z,100849.16
2022-10-05T12:42:05.866Z,100848.28
2022-10-05T12:44:21.562Z,100841.63
2022-10-05T12:46:44.349Z,100844.19
2022-10-05T12:49:05.004Z,100844.19
2022-10-05T12:51:20.216Z,100841.63
2022-10-05T12:53:28.829Z,100834.41
2022-10-05T12:55:59.912Z,100832.25
2022-10-05T12:58:23.118Z,100825.13
2022-10-05T13:00:32.671Z,100830.31
2022-10-05T13:02:44.099Z,100837.63
2022-10-05T13:05:12.035Z,100837.84
2022-10-05T13:07:48.591Z,100831.56
2022-10-05T13:10:09.229Z,100829.84
2022-10-05T13:12:26.726Z,100833.44
2022-10-05T13:14:31.783Z,100831.88
2022-10-05T13:16:55.295Z,100828.41
2022-10-05T13:19:16.179Z,100815.22
2022-10-05T13:21:30.336Z,100809.84
2022-10-05T13:23:57.549Z,100805.06
2022-10-05T13:26:08.940Z,100805.13
2022-10-05T13:28:18.059Z,100815.47
2022-10-05T13:30:22.108Z,100801.72
2022-10-05T13:32:41.238Z,100797.41
2022-10-05T13:34:50.691Z,100798.31
2022-10-05T13:37:17.548Z,100794.88
2022-10-05T13:39:47.177Z,100791.19
2022-10-05T13:42:15.522Z,100788.16
2022-10-05T13:44:34.138Z,100792.63
2022-10-05T13:46:54.090Z,100788.53
2022-10-05T13:49:18.278Z,100781.13
2022-10-05T13:51:38.752Z,100782.81
2022-10-05T13:54:14.823Z,100781.25
2022-10-05T13:56:34.713Z,100777.44
2022-10-05T13:58:45.234Z,100781.63
2022-10-05T14:00:53.107Z,100785.72
2022-10-05T14:02:57.729Z,100790.03
2022-10-05T14:05:02.848Z,100781.53
2022-10-05T14:07:34.167Z,100791.19
2022-10-05T14:09:36.220Z,100782.41
2022-10-05T14:11:51.924Z,100781.88
2022-10-05T14:14:01.603Z,100774.28
2022-10-05T14:16:22.400Z,100770.50
2022-10-05T14:18:27.598Z,100781.34
2022-10-05T14:20:34.325Z,100788.47
2022-10-05T14:22:42.364Z,100788.53
2022-10-05T14:24:52.538Z,100783.28
2022-10-05T14:26:56.656Z,100786.81
2022-10-05T14:29:17.877Z,100786.00
2022-10-05T14:31:32.129Z,100786.41
2022-10-05T14:33:36.074Z,100793.34
2022-10-05T14:35:44.058Z,100792.72
2022-10-05T14:37:58.386Z,100784.81
2022-10-05T14:40:22.439Z,100788.63
2022-10-05T14:42:29.145Z,100787.34
2022-10-05T14:46:36.760Z,100782.16
2022-10-05T14:48:43.388Z,100783.44
2022-10-05T14:50:55.403Z,100779.16
2022-10-05T14:53:10.502Z,100776.50
2022-10-05T14:55:57.110Z,100775.91
2022-10-05T14:58:02.406Z,100783.09
2022-10-05T15:00:13.442Z,100777.94
2022-10-05T15:02:48.206Z,100771.78
2022-10-05T15:05:25.515Z,100775.56
2022-10-05T15:07:39.083Z,100773.56
2022-10-05T15:10:16.051Z,100771.97
2022-10-05T15:12:39.012Z,100772.34
2022-10-05T15:14:45.050Z,100776.81
2022-10-05T15:16:51.741Z,100786.94
2022-10-05T15:19:17.171Z,100788.09
2022-10-05T15:21:31.974Z,100792.84
2022-10-05T15:23:34.043Z,100788.34
2022-10-05T15:25:43.224Z,100797.41
2022-10-05T15:28:11.532Z,100784.50
2022-10-05T15:30:21.435Z,100799.00
2022-10-05T15:32:51.863Z,100806.69
2022-10-05T15:35:09.613Z,100803.16
2022-10-05T15:37:37.131Z,100809.75
2022-10-05T15:39:50.294Z,100814.59
2022-10-05T15:42:02.086Z,100817.69
2022-10-05T15:44:36.487Z,100805.72
2022-10-05T15:46:44.306Z,100801.69
2022-10-05T15:48:56.062Z,100795.69
2022-10-05T15:51:15.385Z,100806.06
2022-10-05T15:53:38.627Z,100800.97
2022-10-05T15:55:53.411Z,100803.16
2022-10-05T15:58:21.122Z,100809.78
2022-10-05T16:00:25.563Z,100813.56
2022-10-05T16:03:05.463Z,100804.25
2022-10-05T16:05:56.400Z,100808.38
2022-10-05T16:08:16.950Z,100798.50
2022-10-05T16:10:21.894Z,100801.59
2022-10-05T16:12:26.862Z,100808.16
2022-10-05T16:14:42.602Z,100812.34
2022-10-05T16:17:22.005Z,100817.44
2022-10-05T16:19:39.470Z,100814.31
2022-10-05T16:22:11.143Z,100814.72
2022-10-05T16:24:47.596Z,100807.91
2022-10-05T16:27:00.329Z,100812.69
2022-10-05T16:29:17.835Z,100812.81
2022-10-05T16:31:31.351Z,100815.09
2022-10-05T16:34:00.778Z,100824.34
2022-10-05T16:36:32.170Z,100823.97
2022-10-05T16:38:38.615Z,100817.72
2022-10-05T16:41:18.199Z,100831.94
2022-10-05T16:43:46.530Z,100828.41
2022-10-05T16:46:30.066Z,100839.19
2022-10-05T16:49:12.353Z,100841.03
2022-10-05T16:51:52.222Z,100850.38
2022-10-05T16:54:00.145Z,100848.75
2022-10-05T16:56:07.045Z,100848.19
2022-10-05T16:58:25.620Z,100850.53
2022-10-05T17:00:45.683Z,100857.22
2022-10-05T17:03:05.860Z,100855.47
2022-10-05T17:05:26.371Z,100861.19
2022-10-05T17:07:43.722Z,100852.63
2022-10-05T17:10:08.410Z,100853.78
2022-10-05T17:12:53.269Z,100853.13
2022-10-05T17:15:15.001Z,100854.81
2022-10-05T17:18:01.481Z,100850.75
2022-10-05T17:20:21.200Z,100846.50
2022-10-05T17:22:39.867Z,100853.00
2022-10-05T17:24:56.904Z,100840.31
2022-10-05T17:27:15.983Z,100844.34
2022-10-05T17:29:47.670Z,100848.97
2022-10-05T17:32:11.391Z,100847.59
2022-10-05T17:34:16.621Z,100847.59
2022-10-05T17:36:18.997Z,100846.81
2022-10-05T17:38:23.829Z,100848.78
2022-10-05T17:40:28.819Z,100849.97
2022-10-05T17:42:34.259Z,100846.94
2022-10-05T17:44:36.038Z,100851.56
2022-10-05T17:46:39.367Z,100859.56
2022-10-05T17:48:44.155Z,100849.78
2022-10-05T17:51:07.269Z,100855.16
2022-10-05T17:53:52.954Z,100856.44
2022-10-05T17:56:05.311Z,100862.75
2022-10-05T17:59:00.063Z,100861.13
2022-10-05T18:01:01.783Z,100861.16
2022-10-05T18:03:37.961Z,100865.13
2022-10-05T18:05:40.324Z,100869.59
2022-10-05T18:07:48.862Z,100868.31
2022-10-05T18:10:00.391Z,100868.31
2022-10-05T18:12:18.064Z,100859.31
2022-10-05T18:14:55.000Z,100868.19
2022-10-05T18:17:04.038Z,100870.91
2022-10-05T18:19:16.716Z,100870.91
2022-10-05T18:22:17.561Z,100872.03
2022-10-05T18:24:32.495Z,100864.69
2022-10-05T18:26:53.152Z,100869.00
2022-10-05T18:29:36.735Z,100863.03
2022-10-05T18:32:00.523Z,100863.91
2022-10-05T18:34:14.050Z,100868.19
2022-10-05T18:36:16.281Z,100871.03
2022-10-05T18:38:49.226Z,100871.28
2022-10-05T18:41:12.516Z,100875.88
2022-10-05T18:43:33.083Z,100872.44
2022-10-05T18:45:53.270Z,100874.31
2022-10-05T18:48:31.261Z,100869.91
2022-10-05T18:50:53.849Z,100868.25
2022-10-05T18:53:28.526Z,100869.34
2022-10-05T18:55:36.321Z,100862.78
2022-10-05T18:58:00.374Z,100869.44
2022-10-05T19:00:15.354Z,100871.25
2022-10-05T19:02:30.301Z,100866.81
2022-10-05T19:05:09.184Z,100884.19
2022-10-05T19:07:26.927Z,100877.00
2022-10-05T19:09:44.087Z,100875.16
2022-10-05T19:12:12.241Z,100873.72
2022-10-05T19:15:01.030Z,100872.69
2022-10-05T19:17:30.967Z,100874.66
2022-10-05T19:19:51.418Z,100874.00
2022-10-05T19:22:13.317Z,100874.97
2022-10-05T19:24:41.841Z,100863.75
2022-10-05T19:27:14.433Z,100868.53
2022-10-05T19:29:57.669Z,100866.19
2022-10-05T19:32:15.942Z,100860.88
2022-10-05T19:34:42.384Z,100869.88
2022-10-05T19:37:14.909Z,100868.22
2022-10-05T19:39:33.769Z,100867.59
2022-10-05T19:41:46.725Z,100860.34
2022-10-05T19:44:27.423Z,100860.59
2022-10-05T19:46:55.489Z,100852.66
2022-10-05T19:49:00.327Z,100854.31
2022-10-05T19:51:11.484Z,100852.66
2022-10-05T19:53:45.949Z,100853.78
2022-10-05T19:55:48.179Z,100849.06
2022-10-05T19:58:01.505Z,100845.75
2022-10-05T20:00:04.653Z,100844.81
2022-10-05T20:02:06.891Z,100856.47
2022-10-05T20:04:10.757Z,100856.47
2022-10-05T20:06:13.608Z,100864.59
2022-10-05T20:08:17.823Z,100855.72
2022-10-05T20:10:29.597Z,100851.47
2022-10-05T20:13:03.992Z,100859.22
2022-10-05T20:15:27.216Z,100864.19
2022-10-05T20:17:51.930Z,100863.31
2022-10-05T20:20:12.577Z,100863.34
2022-10-05T20:22:34.643Z,100858.44
2022-10-05T20:24:50.037Z,100857.56
2022-10-05T20:27:09.556Z,100853.91
2022-10-05T20:29:12.616Z,100851.56
2022-10-05T20:31:14.823Z,100853.53
2022-10-05T20:33:17.007Z,100859.75
2022-10-05T20:35:23.902Z,100853.44
2022-10-05T20:37:26.372Z,100860.59
2022-10-05T20:39:28.499Z,100854.31
2022-10-05T20:41:30.722Z,100856.13
2022-10-05T20:43:32.741Z,100857.97
2022-10-05T20:45:43.435Z,100856.53
2022-10-05T20:47:47.477Z,100854.91
2022-10-05T20:49:49.821Z,100861.03
2022-10-05T20:51:55.820Z,100857.28
2022-10-05T20:53:58.774Z,100857.00
2022-10-05T20:56:02.695Z,100856.84
2022-10-05T20:58:04.851Z,100858.25
2022-10-05T21:00:08.154Z,100857.25
2022-10-05T21:02:10.624Z,100857.53
2022-10-05T21:04:12.900Z,100857.41
2022-10-05T21:06:15.056Z,100851.31
2022-10-05T21:08:17.972Z,100851.38
2022-10-05T21:10:20.070Z,100844.25
2022-10-05T21:12:22.693Z,100851.81
2022-10-05T21:14:33.069Z,100850.84
2022-10-05T21:16:38.245Z,100842.75
2022-10-05T21:18:40.985Z,100854.41
2022-10-05T21:20:43.118Z,100848.50
2022-10-05T21:22:45.173Z,100845.78
2022-10-05T21:24:47.429Z,100844.94
2022-10-05T21:26:52.462Z,100846.78
2022-10-05T21:28:54.757Z,100845.72
2022-10-05T21:30:56.936Z,100842.97
2022-10-05T21:32:59.009Z,100842.91
2022-10-05T21:35:02.267Z,100851.84
2022-10-05T21:37:05.001Z,100849.25
2022-10-05T21:39:07.267Z,100841.13
2022-10-05T21:41:09.358Z,100849.41
2022-10-05T21:43:13.502Z,100848.50
2022-10-05T21:45:15.626Z,100843.13
2022-10-05T21:47:17.848Z,100849.38
2022-10-05T21:49:20.229Z,100842.16
2022-10-05T21:51:25.397Z,100834.44
2022-10-05T21:53:32.278Z,100840.00
2022-10-05T21:55:36.110Z,100841.31
2022-10-05T21:57:38.950Z,100841.28
2022-10-05T21:59:41.417Z,100838.06
2022-10-05T22:01:43.670Z,100837.84
2022-10-05T22:03:45.983Z,100837.94
2022-10-05T22:06:49.029Z,100837.91
2022-10-05T22:08:51.503Z,100826.03
2022-10-05T22:10:56.833Z,100830.63
2022-10-05T22:13:04.935Z,100823.41
2022-10-05T22:15:07.627Z,100823.38
2022-10-05T22:17:22.504Z,100821.06
2022-10-05T22:19:25.307Z,100822.84
2022-10-05T22:21:27.327Z,100822.88
2022-10-05T22:23:29.489Z,100820.91
2022-10-05T22:25:33.971Z,100820.16
2022-10-05T22:27:36.605Z,100820.16
2022-10-05T22:29:39.139Z,100822.97
2022-10-05T22:31:41.492Z,100824.81
2022-10-05T22:33:44.726Z,100821.19
2022-10-05T22:35:49.648Z,100818.66
2022-10-05T22:37:51.694Z,100814.25
2022-10-05T22:39:55.369Z,100813.25
2022-10-05T22:41:58.052Z,100811.47
2022-10-05T22:44:03.197Z,100799.81
2022-10-05T22:46:13.041Z,100805.31
2022-10-05T22:48:16.279Z,100805.22
2022-10-05T22:50:18.401Z,100804.59
2022-10-05T22:52:21.437Z,100815.47
2022-10-05T22:54:27.451Z,100821.66
2022-10-05T22:56:31.518Z,100826.41
2022-10-05T22:58:33.904Z,100822.88
2022-10-05T23:00:59.179Z,100832.69
2022-10-05T23:02:59.802Z,100838.94
2022-10-05T23:05:01.934Z,100825.31
2022-10-05T23:07:04.576Z,100824.25
2022-10-05T23:09:06.724Z,100826.81
2022-10-05T23:11:12.932Z,100822.97
2022-10-05T23:13:16.204Z,100822.88
2022-10-05T23:15:18.555Z,100821.84
2022-10-05T23:17:21.281Z,100822.03
2022-10-05T23:19:24.061Z,100825.28
2022-10-05T23:21:29.136Z,100830.59
2022-10-05T23:23:31.203Z,100831.38
2022-10-05T23:25:33.507Z,100815.94
2022-10-05T23:27:39.967Z,100817.72
2022-10-05T23:29:42.125Z,100825.66
2022-10-05T23:31:44.144Z,100814.78
2022-10-05T23:33:46.499Z,100824.69
2022-10-05T23:35:48.488Z,100820.25
2022-10-05T23:37:51.152Z,100821.88
2022-10-05T23:39:56.007Z,100818.34
2022-10-05T23:42:00.105Z,100824.53
2022-10-05T23:44:02.057Z,100831.81
2022-10-05T23:46:06.651Z,100825.59
2022-10-05T23:48:08.703Z,100826.41
2022-10-05T23:50:10.937Z,100830.88
2022-10-05T23:52:13.402Z,100825.72
2022-10-05T23:54:16.549Z,100836.63
2022-10-05T23:56:19.774Z,100834.75
2022-10-05T23:58:23.203Z,100830.19
